sensor_id;sensor_type;location;lat;lon;timestamp;P1;durP1;ratioP1;P2;durP2;ratioP2
9254;SDS011;4663;49.120;9.730;2022-10-16T00:01:21;24.88;;;23.73;;
9254;SDS011;4663;49.120;9.730;2022-10-16T00:03:48;24.38;;;22.90;;
9254;SDS011;4663;49.120;9.730;2022-10-16T00:06:15;23.45;;;22.02;;
9254;SDS011;4663;49.120;9.730;2022-10-16T00:08:42;23.13;;;21.95;;
9254;SDS011;4663;49.120;9.730;2022-10-16T00:11:10;24.80;;;23.52;;
9254;SDS011;4663;49.120;9.730;2022-10-16T00:13:39;23.83;;;22.52;;
9254;SDS011;4663;49.120;9.730;2022-10-16T00:16:05;23.73;;;22.30;;
9254;SDS011;4663;49.120;9.730;2022-10-16T00:18:32;25.40;;;24.17;;
9254;SDS011;4663;49.120;9.730;2022-10-16T00:21:02;25.45;;;23.95;;
9254;SDS011;4663;49.120;9.730;2022-10-16T00:23:39;25.60;;;23.80;;
9254;SDS011;4663;49.120;9.730;2022-10-16T00:26:06;27.85;;;26.48;;
9254;SDS011;4663;49.120;9.730;2022-10-16T00:28:34;28.05;;;26.63;;
9254;SDS011;4663;49.120;9.730;2022-10-16T00:31:07;28.02;;;26.50;;
9254;SDS011;4663;49.120;9.730;2022-10-16T00:33:34;29.20;;;26.77;;
9254;SDS011;4663;49.120;9.730;2022-10-16T00:36:01;27.48;;;25.98;;
9254;SDS011;4663;49.120;9.730;2022-10-16T00:38:28;28.98;;;27.33;;
9254;SDS011;4663;49.120;9.730;2022-10-16T00:40:53;30.27;;;28.88;;
9254;SDS011;4663;49.120;9.730;2022-10-16T00:46:00;30.08;;;28.55;;
9254;SDS011;4663;49.120;9.730;2022-10-16T00:48:27;31.73;;;30.25;;
9254;SDS011;4663;49.120;9.730;2022-10-16T00:50:53;35.35;;;32.80;;
9254;SDS011;4663;49.120;9.730;2022-10-16T00:53:19;34.05;;;32.47;;
9254;SDS011;4663;49.120;9.730;2022-10-16T00:55:46;33.63;;;31.92;;
9254;SDS011;4663;49.120;9.730;2022-10-16T00:58:11;32.47;;;30.73;;
9254;SDS011;4663;49.120;9.730;2022-10-16T01:00:37;32.28;;;30.48;;
9254;SDS011;4663;49.120;9.730;2022-10-16T01:03:03;31.67;;;30.13;;
9254;SDS011;4663;49.120;9.730;2022-10-16T01:05:49;26.50;;;25.27;;
9254;SDS011;4663;49.120;9.730;2022-10-16T01:08:25;30.85;;;29.27;;
9254;SDS011;4663;49.120;9.730;2022-10-16T01:10:57;28.40;;;26.80;;
9254;SDS011;4663;49.120;9.730;2022-10-16T01:13:32;30.25;;;28.77;;
9254;SDS011;4663;49.120;9.730;2022-10-16T01:18:43;32.08;;;30.60;;
9254;SDS011;4663;49.120;9.730;2022-10-16T01:27:07;25.98;;;24.77;;
9254;SDS011;4663;49.120;9.730;2022-10-16T01:34:58;27.02;;;25.48;;
9254;SDS011;4663;49.120;9.730;2022-10-16T01:40:05;27.40;;;25.92;;
9254;SDS011;4663;49.120;9.730;2022-10-16T01:42:36;27.85;;;26.15;;
9254;SDS011;4663;49.120;9.730;2022-10-16T01:45:08;27.17;;;25.38;;
9254;SDS011;4663;49.120;9.730;2022-10-16T01:47:36;28.35;;;26.80;;
9254;SDS011;4663;49.120;9.730;2022-10-16T01:50:04;28.90;;;27.38;;
9254;SDS011;4663;49.120;9.730;2022-10-16T01:52:32;29.23;;;27.75;;
9254;SDS011;4663;49.120;9.730;2022-10-16T01:55:02;33.13;;;31.52;;
9254;SDS011;4663;49.120;9.730;2022-10-16T01:57:30;28.90;;;27.35;;
9254;SDS011;4663;49.120;9.730;2022-10-16T02:00:01;29.88;;;28.38;;
9254;SDS011;4663;49.120;9.730;2022-10-16T02:02:32;30.77;;;29.02;;
9254;SDS011;4663;49.120;9.730;2022-10-16T02:05:02;30.70;;;28.95;;
9254;SDS011;4663;49.120;9.730;2022-10-16T02:07:48;29.05;;;27.45;;
9254;SDS011;4663;49.120;9.730;2022-10-16T02:10:14;28.63;;;26.00;;
9254;SDS011;4663;49.120;9.730;2022-10-16T02:12:41;28.02;;;26.48;;
9254;SDS011;4663;49.120;9.730;2022-10-16T02:15:11;26.05;;;24.02;;
9254;SDS011;4663;49.120;9.730;2022-10-16T02:17:36;27.13;;;25.77;;
9254;SDS011;4663;49.120;9.730;2022-10-16T02:20:02;25.65;;;24.23;;
9254;SDS011;4663;49.120;9.730;2022-10-16T02:22:30;26.05;;;24.52;;
9254;SDS011;4663;49.120;9.730;2022-10-16T02:25:06;25.77;;;24.50;;
9254;SDS011;4663;49.120;9.730;2022-10-16T02:27:49;23.65;;;22.50;;
9254;SDS011;4663;49.120;9.730;2022-10-16T02:30:21;22.55;;;21.23;;
9254;SDS011;4663;49.120;9.730;2022-10-16T02:33:05;23.10;;;21.73;;
9254;SDS011;4663;49.120;9.730;2022-10-16T02:35:34;25.25;;;23.95;;
9254;SDS011;4663;49.120;9.730;2022-10-16T02:38:01;24.20;;;22.73;;
9254;SDS011;4663;49.120;9.730;2022-10-16T02:40:27;23.52;;;22.30;;
9254;SDS011;4663;49.120;9.730;2022-10-16T02:42:53;25.67;;;23.98;;
9254;SDS011;4663;49.120;9.730;2022-10-16T02:45:19;24.98;;;23.73;;
9254;SDS011;4663;49.120;9.730;2022-10-16T02:47:45;24.42;;;23.08;;
9254;SDS011;4663;49.120;9.730;2022-10-16T02:50:11;25.38;;;23.90;;
9254;SDS011;4663;49.120;9.730;2022-10-16T02:52:36;27.05;;;25.35;;
9254;SDS011;4663;49.120;9.730;2022-10-16T02:55:02;24.52;;;23.02;;
9254;SDS011;4663;49.120;9.730;2022-10-16T02:57:27;26.08;;;24.88;;
9254;SDS011;4663;49.120;9.730;2022-10-16T02:59:53;24.15;;;22.98;;
9254;SDS011;4663;49.120;9.730;2022-10-16T03:02:18;25.02;;;23.70;;
9254;SDS011;4663;49.120;9.730;2022-10-16T03:04:44;24.95;;;23.27;;
9254;SDS011;4663;49.120;9.730;2022-10-16T03:07:09;28.02;;;26.15;;
9254;SDS011;4663;49.120;9.730;2022-10-16T03:09:35;24.75;;;23.13;;
9254;SDS011;4663;49.120;9.730;2022-10-16T03:12:00;25.75;;;24.40;;
9254;SDS011;4663;49.120;9.730;2022-10-16T03:14:25;26.35;;;24.88;;
9254;SDS011;4663;49.120;9.730;2022-10-16T03:16:51;26.13;;;24.50;;
9254;SDS011;4663;49.120;9.730;2022-10-16T03:19:17;25.35;;;23.98;;
9254;SDS011;4663;49.120;9.730;2022-10-16T03:21:43;25.88;;;23.88;;
9254;SDS011;4663;49.120;9.730;2022-10-16T03:24:09;24.73;;;23.33;;
9254;SDS011;4663;49.120;9.730;2022-10-16T03:26:34;23.25;;;22.10;;
9254;SDS011;4663;49.120;9.730;2022-10-16T03:29:00;25.05;;;23.63;;
9254;SDS011;4663;49.120;9.730;2022-10-16T03:31:27;23.35;;;21.80;;
9254;SDS011;4663;49.120;9.730;2022-10-16T03:33:52;25.98;;;24.27;;
9254;SDS011;4663;49.120;9.730;2022-10-16T03:36:18;22.73;;;21.58;;
9254;SDS011;4663;49.120;9.730;2022-10-16T03:38:43;24.02;;;22.80;;
9254;SDS011;4663;49.120;9.730;2022-10-16T03:41:08;22.27;;;21.02;;
9254;SDS011;4663;49.120;9.730;2022-10-16T03:43:34;22.17;;;20.98;;
9254;SDS011;4663;49.120;9.730;2022-10-16T03:45:59;21.98;;;20.73;;
9254;SDS011;4663;49.120;9.730;2022-10-16T03:48:24;22.77;;;20.83;;
9254;SDS011;4663;49.120;9.730;2022-10-16T03:50:50;21.15;;;20.08;;
9254;SDS011;4663;49.120;9.730;2022-10-16T03:53:16;22.23;;;21.15;;
9254;SDS011;4663;49.120;9.730;2022-10-16T03:55:42;21.90;;;20.80;;
9254;SDS011;4663;49.120;9.730;2022-10-16T03:58:08;20.25;;;19.15;;
9254;SDS011;4663;49.120;9.730;2022-10-16T04:00:33;21.10;;;19.83;;
9254;SDS011;4663;49.120;9.730;2022-10-16T04:02:59;22.02;;;20.75;;
9254;SDS011;4663;49.120;9.730;2022-10-16T04:05:25;21.17;;;19.98;;
9254;SDS011;4663;49.120;9.730;2022-10-16T04:07:50;21.63;;;20.60;;
9254;SDS011;4663;49.120;9.730;2022-10-16T04:10:16;20.15;;;19.13;;
9254;SDS011;4663;49.120;9.730;2022-10-16T04:12:41;21.00;;;19.90;;
9254;SDS011;4663;49.120;9.730;2022-10-16T04:15:07;20.25;;;18.98;;
9254;SDS011;4663;49.120;9.730;2022-10-16T04:17:33;21.58;;;20.40;;
9254;SDS011;4663;49.120;9.730;2022-10-16T04:19:58;22.75;;;21.52;;
9254;SDS011;4663;49.120;9.730;2022-10-16T04:22:24;22.92;;;21.45;;
9254;SDS011;4663;49.120;9.730;2022-10-16T04:24:49;22.90;;;21.77;;
9254;SDS011;4663;49.120;9.730;2022-10-16T04:27:14;27.15;;;25.35;;
9254;SDS011;4663;49.120;9.730;2022-10-16T04:29:40;22.17;;;21.08;;
9254;SDS011;4663;49.120;9.730;2022-10-16T04:32:05;25.95;;;24.20;;
9254;SDS011;4663;49.120;9.730;2022-10-16T04:34:34;25.60;;;24.35;;
9254;SDS011;4663;49.120;9.730;2022-10-16T04:36:59;25.88;;;24.60;;
9254;SDS011;4663;49.120;9.730;2022-10-16T04:39:25;28.70;;;27.10;;
9254;SDS011;4663;49.120;9.730;2022-10-16T04:41:50;27.77;;;25.88;;
9254;SDS011;4663;49.120;9.730;2022-10-16T04:44:16;27.33;;;25.88;;
9254;SDS011;4663;49.120;9.730;2022-10-16T04:46:46;30.17;;;28.67;;
9254;SDS011;4663;49.120;9.730;2022-10-16T04:49:11;28.83;;;27.42;;
9254;SDS011;4663;49.120;9.730;2022-10-16T04:51:36;30.73;;;29.20;;
9254;SDS011;4663;49.120;9.730;2022-10-16T04:54:02;32.72;;;31.00;;
9254;SDS011;4663;49.120;9.730;2022-10-16T04:56:27;30.70;;;29.05;;
9254;SDS011;4663;49.120;9.730;2022-10-16T04:58:52;33.67;;;31.58;;
9254;SDS011;4663;49.120;9.730;2022-10-16T05:01:18;28.38;;;26.67;;
9254;SDS011;4663;49.120;9.730;2022-10-16T05:03:43;31.02;;;29.25;;
9254;SDS011;4663;49.120;9.730;2022-10-16T05:06:08;30.75;;;28.58;;
9254;SDS011;4663;49.120;9.730;2022-10-16T05:08:34;31.75;;;30.10;;
9254;SDS011;4663;49.120;9.730;2022-10-16T05:10:59;30.52;;;28.95;;
9254;SDS011;4663;49.120;9.730;2022-10-16T05:13:25;32.28;;;30.67;;
9254;SDS011;4663;49.120;9.730;2022-10-16T05:15:50;31.45;;;29.75;;
9254;SDS011;4663;49.120;9.730;2022-10-16T05:18:16;31.65;;;29.95;;
9254;SDS011;4663;49.120;9.730;2022-10-16T05:20:41;29.75;;;27.95;;
9254;SDS011;4663;49.120;9.730;2022-10-16T05:23:07;31.83;;;30.23;;
9254;SDS011;4663;49.120;9.730;2022-10-16T05:25:35;31.88;;;30.25;;
9254;SDS011;4663;49.120;9.730;2022-10-16T05:28:01;32.33;;;30.63;;
9254;SDS011;4663;49.120;9.730;2022-10-16T05:30:26;32.70;;;31.08;;
9254;SDS011;4663;49.120;9.730;2022-10-16T05:32:51;33.60;;;31.60;;
9254;SDS011;4663;49.120;9.730;2022-10-16T05:35:17;34.75;;;32.95;;
9254;SDS011;4663;49.120;9.730;2022-10-16T05:37:43;32.70;;;30.83;;
9254;SDS011;4663;49.120;9.730;2022-10-16T05:40:09;30.83;;;28.80;;
9254;SDS011;4663;49.120;9.730;2022-10-16T05:42:35;32.15;;;30.52;;
9254;SDS011;4663;49.120;9.730;2022-10-16T05:45:00;32.05;;;30.33;;
9254;SDS011;4663;49.120;9.730;2022-10-16T05:47:26;31.17;;;29.40;;
9254;SDS011;4663;49.120;9.730;2022-10-16T05:49:52;31.70;;;29.95;;
9254;SDS011;4663;49.120;9.730;2022-10-16T05:52:18;30.30;;;28.85;;
9254;SDS011;4663;49.120;9.730;2022-10-16T05:54:43;31.98;;;30.33;;
9254;SDS011;4663;49.120;9.730;2022-10-16T05:57:09;30.58;;;29.10;;
9254;SDS011;4663;49.120;9.730;2022-10-16T05:59:34;32.63;;;30.98;;
9254;SDS011;4663;49.120;9.730;2022-10-16T06:01:59;31.75;;;29.83;;
9254;SDS011;4663;49.120;9.730;2022-10-16T06:04:25;33.70;;;31.80;;
9254;SDS011;4663;49.120;9.730;2022-10-16T06:06:50;30.10;;;28.55;;
9254;SDS011;4663;49.120;9.730;2022-10-16T06:09:16;32.10;;;30.45;;
9254;SDS011;4663;49.120;9.730;2022-10-16T06:11:41;30.13;;;28.35;;
9254;SDS011;4663;49.120;9.730;2022-10-16T06:14:07;32.38;;;30.77;;
9254;SDS011;4663;49.120;9.730;2022-10-16T06:16:34;30.02;;;28.52;;
9254;SDS011;4663;49.120;9.730;2022-10-16T06:19:01;29.05;;;27.55;;
9254;SDS011;4663;49.120;9.730;2022-10-16T06:21:31;28.92;;;27.13;;
9254;SDS011;4663;49.120;9.730;2022-10-16T06:23:57;28.73;;;27.40;;
9254;SDS011;4663;49.120;9.730;2022-10-16T06:26:23;29.85;;;28.35;;
9254;SDS011;4663;49.120;9.730;2022-10-16T06:28:50;29.42;;;28.00;;
9254;SDS011;4663;49.120;9.730;2022-10-16T06:31:16;28.92;;;27.45;;
9254;SDS011;4663;49.120;9.730;2022-10-16T06:33:42;27.58;;;26.25;;
9254;SDS011;4663;49.120;9.730;2022-10-16T06:36:08;26.52;;;25.20;;
9254;SDS011;4663;49.120;9.730;2022-10-16T06:38:35;27.00;;;25.63;;
9254;SDS011;4663;49.120;9.730;2022-10-16T06:41:01;24.35;;;23.05;;
9254;SDS011;4663;49.120;9.730;2022-10-16T06:43:28;25.05;;;23.83;;
9254;SDS011;4663;49.120;9.730;2022-10-16T06:45:57;26.58;;;25.08;;
9254;SDS011;4663;49.120;9.730;2022-10-16T06:48:23;24.80;;;23.17;;
9254;SDS011;4663;49.120;9.730;2022-10-16T06:50:58;25.33;;;24.13;;
9254;SDS011;4663;49.120;9.730;2022-10-16T06:53:26;25.77;;;24.48;;
9254;SDS011;4663;49.120;9.730;2022-10-16T06:55:53;24.15;;;22.83;;
9254;SDS011;4663;49.120;9.730;2022-10-16T06:58:19;24.52;;;23.10;;
9254;SDS011;4663;49.120;9.730;2022-10-16T07:00:45;24.38;;;23.17;;
9254;SDS011;4663;49.120;9.730;2022-10-16T07:03:10;23.88;;;22.63;;
9254;SDS011;4663;49.120;9.730;2022-10-16T07:05:39;23.90;;;22.35;;
9254;SDS011;4663;49.120;9.730;2022-10-16T07:08:06;23.98;;;22.40;;
9254;SDS011;4663;49.120;9.730;2022-10-16T07:10:31;22.58;;;21.42;;
9254;SDS011;4663;49.120;9.730;2022-10-16T07:12:57;24.05;;;22.75;;
9254;SDS011;4663;49.120;9.730;2022-10-16T07:15:24;24.00;;;22.60;;
9254;SDS011;4663;49.120;9.730;2022-10-16T07:17:50;23.92;;;22.67;;
9254;SDS011;4663;49.120;9.730;2022-10-16T07:20:15;25.67;;;24.33;;
9254;SDS011;4663;49.120;9.730;2022-10-16T07:22:40;28.40;;;26.92;;
9254;SDS011;4663;49.120;9.730;2022-10-16T07:25:06;31.25;;;29.35;;
9254;SDS011;4663;49.120;9.730;2022-10-16T07:27:32;34.90;;;33.25;;
9254;SDS011;4663;49.120;9.730;2022-10-16T07:29:57;36.05;;;34.28;;
9254;SDS011;4663;49.120;9.730;2022-10-16T07:32:22;35.65;;;33.70;;
9254;SDS011;4663;49.120;9.730;2022-10-16T07:34:50;38.00;;;35.88;;
9254;SDS011;4663;49.120;9.730;2022-10-16T07:37:16;43.05;;;40.95;;
9254;SDS011;4663;49.120;9.730;2022-10-16T07:39:41;51.65;;;49.17;;
9254;SDS011;4663;49.120;9.730;2022-10-16T07:42:06;54.88;;;52.25;;
9254;SDS011;4663;49.120;9.730;2022-10-16T07:44:32;54.42;;;51.83;;
9254;SDS011;4663;49.120;9.730;2022-10-16T07:46:58;59.25;;;56.40;;
9254;SDS011;4663;49.120;9.730;2022-10-16T07:49:23;54.47;;;51.60;;
9254;SDS011;4663;49.120;9.730;2022-10-16T07:51:49;58.42;;;55.47;;
9254;SDS011;4663;49.120;9.730;2022-10-16T07:54:15;52.97;;;50.33;;
9254;SDS011;4663;49.120;9.730;2022-10-16T07:56:40;55.67;;;53.13;;
9254;SDS011;4663;49.120;9.730;2022-10-16T07:59:05;51.25;;;48.08;;
9254;SDS011;4663;49.120;9.730;2022-10-16T08:01:31;51.17;;;48.65;;
9254;SDS011;4663;49.120;9.730;2022-10-16T08:03:56;48.75;;;46.38;;
9254;SDS011;4663;49.120;9.730;2022-10-16T08:06:22;48.25;;;45.78;;
9254;SDS011;4663;49.120;9.730;2022-10-16T08:08:47;49.13;;;46.78;;
9254;SDS011;4663;49.120;9.730;2022-10-16T08:11:13;73.50;;;69.93;;
9254;SDS011;4663;49.120;9.730;2022-10-16T08:13:39;49.58;;;47.00;;
9254;SDS011;4663;49.120;9.730;2022-10-16T08:16:05;53.22;;;50.65;;
9254;SDS011;4663;49.120;9.730;2022-10-16T08:18:33;50.53;;;48.08;;
9254;SDS011;4663;49.120;9.730;2022-10-16T08:21:02;57.80;;;55.05;;
9254;SDS011;4663;49.120;9.730;2022-10-16T08:23:29;51.67;;;49.22;;
9254;SDS011;4663;49.120;9.730;2022-10-16T08:25:55;52.67;;;49.83;;
9254;SDS011;4663;49.120;9.730;2022-10-16T08:28:21;53.42;;;50.45;;
9254;SDS011;4663;49.120;9.730;2022-10-16T08:30:47;55.03;;;52.47;;
9254;SDS011;4663;49.120;9.730;2022-10-16T08:33:13;56.53;;;53.88;;
9254;SDS011;4663;49.120;9.730;2022-10-16T08:35:38;57.88;;;55.03;;
9254;SDS011;4663;49.120;9.730;2022-10-16T08:38:04;52.83;;;50.13;;
9254;SDS011;4663;49.120;9.730;2022-10-16T08:40:31;50.67;;;48.28;;
9254;SDS011;4663;49.120;9.730;2022-10-16T08:43:03;46.80;;;44.55;;
9254;SDS011;4663;49.120;9.730;2022-10-16T08:45:41;45.22;;;43.00;;
9254;SDS011;4663;49.120;9.730;2022-10-16T08:50:44;35.60;;;33.78;;
9254;SDS011;4663;49.120;9.730;2022-10-16T08:53:14;33.67;;;32.05;;
9254;SDS011;4663;49.120;9.730;2022-10-16T08:55:45;28.58;;;26.85;;
9254;SDS011;4663;49.120;9.730;2022-10-16T08:58:16;27.10;;;25.75;;
9254;SDS011;4663;49.120;9.730;2022-10-16T09:00:45;30.67;;;29.17;;
9254;SDS011;4663;49.120;9.730;2022-10-16T09:03:39;29.50;;;27.98;;
9254;SDS011;4663;49.120;9.730;2022-10-16T09:12:04;27.67;;;26.02;;
9254;SDS011;4663;49.120;9.730;2022-10-16T09:20:50;33.50;;;31.90;;
9254;SDS011;4663;49.120;9.730;2022-10-16T09:23:28;34.13;;;32.53;;
9254;SDS011;4663;49.120;9.730;2022-10-16T09:25:55;33.65;;;31.98;;
9254;SDS011;4663;49.120;9.730;2022-10-16T09:28:24;32.85;;;31.20;;
9254;SDS011;4663;49.120;9.730;2022-10-16T09:30:50;32.45;;;30.65;;
9254;SDS011;4663;49.120;9.730;2022-10-16T09:33:16;27.42;;;26.05;;
9254;SDS011;4663;49.120;9.730;2022-10-16T09:35:45;25.77;;;24.38;;
9254;SDS011;4663;49.120;9.730;2022-10-16T09:38:24;23.15;;;21.73;;
9254;SDS011;4663;49.120;9.730;2022-10-16T09:40:49;24.38;;;22.88;;
9254;SDS011;4663;49.120;9.730;2022-10-16T09:43:20;23.10;;;21.95;;
9254;SDS011;4663;49.120;9.730;2022-10-16T09:45:53;21.58;;;20.58;;
9254;SDS011;4663;49.120;9.730;2022-10-16T09:48:20;22.65;;;21.45;;
9254;SDS011;4663;49.120;9.730;2022-10-16T09:50:54;21.90;;;20.60;;
9254;SDS011;4663;49.120;9.730;2022-10-16T09:53:21;19.48;;;18.33;;
9254;SDS011;4663;49.120;9.730;2022-10-16T09:55:51;18.92;;;17.80;;
9254;SDS011;4663;49.120;9.730;2022-10-16T09:58:20;21.05;;;19.98;;
9254;SDS011;4663;49.120;9.730;2022-10-16T10:00:53;22.08;;;20.73;;
9254;SDS011;4663;49.120;9.730;2022-10-16T10:03:25;22.52;;;21.30;;
9254;SDS011;4663;49.120;9.730;2022-10-16T10:06:03;24.67;;;23.40;;
9254;SDS011;4663;49.120;9.730;2022-10-16T10:08:41;26.55;;;25.25;;
9254;SDS011;4663;49.120;9.730;2022-10-16T10:11:06;26.67;;;25.35;;
9254;SDS011;4663;49.120;9.730;2022-10-16T10:13:32;26.73;;;25.52;;
9254;SDS011;4663;49.120;9.730;2022-10-16T10:15:57;29.85;;;28.17;;
9254;SDS011;4663;49.120;9.730;2022-10-16T10:18:22;25.85;;;24.45;;
9254;SDS011;4663;49.120;9.730;2022-10-16T10:21:02;26.92;;;25.20;;
9254;SDS011;4663;49.120;9.730;2022-10-16T10:23:28;26.60;;;25.27;;
9254;SDS011;4663;49.120;9.730;2022-10-16T10:26:01;31.70;;;30.08;;
9254;SDS011;4663;49.120;9.730;2022-10-16T10:28:51;28.85;;;27.33;;
9254;SDS011;4663;49.120;9.730;2022-10-16T10:37:01;28.65;;;27.08;;
9254;SDS011;4663;49.120;9.730;2022-10-16T10:39:42;30.95;;;29.35;;
9254;SDS011;4663;49.120;9.730;2022-10-16T10:47:51;25.98;;;24.65;;
9254;SDS011;4663;49.120;9.730;2022-10-16T10:50:52;23.38;;;22.15;;
9254;SDS011;4663;49.120;9.730;2022-10-16T11:01:53;28.58;;;27.10;;
9254;SDS011;4663;49.120;9.730;2022-10-16T11:07:05;25.58;;;24.17;;
9254;SDS011;4663;49.120;9.730;2022-10-16T11:09:41;22.40;;;21.30;;
9254;SDS011;4663;49.120;9.730;2022-10-16T11:12:13;25.63;;;24.38;;
9254;SDS011;4663;49.120;9.730;2022-10-16T11:17:28;27.90;;;26.42;;
9254;SDS011;4663;49.120;9.730;2022-10-16T11:20:10;24.40;;;23.27;;
9254;SDS011;4663;49.120;9.730;2022-10-16T11:22:50;21.17;;;20.00;;
9254;SDS011;4663;49.120;9.730;2022-10-16T11:25:40;20.80;;;19.45;;
9254;SDS011;4663;49.120;9.730;2022-10-16T11:30:57;21.95;;;20.92;;
9254;SDS011;4663;49.120;9.730;2022-10-16T11:36:11;24.25;;;23.02;;
9254;SDS011;4663;49.120;9.730;2022-10-16T11:38:48;27.25;;;25.75;;
9254;SDS011;4663;49.120;9.730;2022-10-16T11:49:40;25.65;;;24.40;;
9254;SDS011;4663;49.120;9.730;2022-10-16T11:52:12;23.75;;;22.55;;
9254;SDS011;4663;49.120;9.730;2022-10-16T11:54:47;29.75;;;28.23;;
9254;SDS011;4663;49.120;9.730;2022-10-16T11:57:24;25.77;;;24.58;;
9254;SDS011;4663;49.120;9.730;2022-10-16T11:59:57;24.50;;;23.33;;
9254;SDS011;4663;49.120;9.730;2022-10-16T12:08:06;34.15;;;31.95;;
9254;SDS011;4663;49.120;9.730;2022-10-16T12:10:38;32.58;;;30.98;;
9254;SDS011;4663;49.120;9.730;2022-10-16T12:13:25;28.98;;;27.58;;
9254;SDS011;4663;49.120;9.730;2022-10-16T12:18:37;30.45;;;28.98;;
9254;SDS011;4663;49.120;9.730;2022-10-16T12:21:03;32.30;;;30.70;;
9254;SDS011;4663;49.120;9.730;2022-10-16T12:23:32;32.78;;;31.25;;
9254;SDS011;4663;49.120;9.730;2022-10-16T12:26:01;32.78;;;31.05;;
9254;SDS011;4663;49.120;9.730;2022-10-16T12:28:28;33.00;;;31.40;;
9254;SDS011;4663;49.120;9.730;2022-10-16T12:31:01;36.83;;;34.85;;
9254;SDS011;4663;49.120;9.730;2022-10-16T12:33:29;33.90;;;32.30;;
9254;SDS011;4663;49.120;9.730;2022-10-16T12:35:57;33.25;;;31.65;;
9254;SDS011;4663;49.120;9.730;2022-10-16T12:40:56;30.08;;;28.65;;
9254;SDS011;4663;49.120;9.730;2022-10-16T12:46:01;29.33;;;27.98;;
9254;SDS011;4663;49.120;9.730;2022-10-16T12:48:29;28.90;;;27.10;;
9254;SDS011;4663;49.120;9.730;2022-10-16T12:50:55;31.05;;;29.45;;
9254;SDS011;4663;49.120;9.730;2022-10-16T12:53:22;28.00;;;26.55;;
9254;SDS011;4663;49.120;9.730;2022-10-16T12:56:04;30.50;;;28.90;;
9254;SDS011;4663;49.120;9.730;2022-10-16T12:58:52;26.10;;;24.67;;
9254;SDS011;4663;49.120;9.730;2022-10-16T13:01:39;28.77;;;27.27;;
9254;SDS011;4663;49.120;9.730;2022-10-16T13:06:54;28.10;;;26.60;;
9254;SDS011;4663;49.120;9.730;2022-10-16T13:28:38;27.23;;;25.92;;
9254;SDS011;4663;49.120;9.730;2022-10-16T13:31:04;28.05;;;26.65;;
9254;SDS011;4663;49.120;9.730;2022-10-16T13:33:39;24.38;;;22.98;;
9254;SDS011;4663;49.120;9.730;2022-10-16T13:36:17;24.50;;;23.10;;
9254;SDS011;4663;49.120;9.730;2022-10-16T13:38:44;25.23;;;23.90;;
9254;SDS011;4663;49.120;9.730;2022-10-16T13:41:16;26.10;;;24.88;;
9254;SDS011;4663;49.120;9.730;2022-10-16T13:43:44;24.23;;;23.02;;
9254;SDS011;4663;49.120;9.730;2022-10-16T13:48:55;25.20;;;23.95;;
9254;SDS011;4663;49.120;9.730;2022-10-16T13:51:21;23.88;;;22.65;;
9254;SDS011;4663;49.120;9.730;2022-10-16T13:53:51;24.48;;;23.05;;
9254;SDS011;4663;49.120;9.730;2022-10-16T13:56:18;25.33;;;23.95;;
9254;SDS011;4663;49.120;9.730;2022-10-16T13:58:45;23.80;;;22.40;;
9254;SDS011;4663;49.120;9.730;2022-10-16T14:01:19;25.15;;;23.55;;
9254;SDS011;4663;49.120;9.730;2022-10-16T14:03:48;24.58;;;23.38;;
9254;SDS011;4663;49.120;9.730;2022-10-16T14:06:16;26.10;;;24.52;;
9254;SDS011;4663;49.120;9.730;2022-10-16T14:08:48;24.63;;;23.13;;
9254;SDS011;4663;49.120;9.730;2022-10-16T14:11:24;25.80;;;24.35;;
9254;SDS011;4663;49.120;9.730;2022-10-16T14:13:50;22.33;;;21.15;;
9254;SDS011;4663;49.120;9.730;2022-10-16T14:16:20;23.92;;;22.40;;
9254;SDS011;4663;49.120;9.730;2022-10-16T14:19:01;23.02;;;21.77;;
9254;SDS011;4663;49.120;9.730;2022-10-16T14:21:31;22.67;;;21.27;;
9254;SDS011;4663;49.120;9.730;2022-10-16T14:23:58;22.25;;;20.85;;
9254;SDS011;4663;49.120;9.730;2022-10-16T14:26:25;21.67;;;20.48;;
9254;SDS011;4663;49.120;9.730;2022-10-16T14:31:58;24.35;;;22.77;;
9254;SDS011;4663;49.120;9.730;2022-10-16T14:36:58;21.73;;;20.45;;
9254;SDS011;4663;49.120;9.730;2022-10-16T14:39:27;23.98;;;22.58;;
9254;SDS011;4663;49.120;9.730;2022-10-16T14:41:55;21.55;;;20.35;;
9254;SDS011;4663;49.120;9.730;2022-10-16T14:44:23;22.58;;;21.35;;
9254;SDS011;4663;49.120;9.730;2022-10-16T14:46:53;21.95;;;20.85;;
9254;SDS011;4663;49.120;9.730;2022-10-16T14:49:19;23.02;;;21.80;;
9254;SDS011;4663;49.120;9.730;2022-10-16T14:51:47;23.25;;;21.95;;
9254;SDS011;4663;49.120;9.730;2022-10-16T14:54:13;23.98;;;22.88;;
9254;SDS011;4663;49.120;9.730;2022-10-16T14:56:43;24.40;;;23.13;;
9254;SDS011;4663;49.120;9.730;2022-10-16T14:59:18;26.23;;;24.65;;
9254;SDS011;4663;49.120;9.730;2022-10-16T15:01:44;27.52;;;25.95;;
9254;SDS011;4663;49.120;9.730;2022-10-16T15:04:10;26.13;;;24.70;;
9254;SDS011;4663;49.120;9.730;2022-10-16T15:06:37;25.20;;;23.20;;
9254;SDS011;4663;49.120;9.730;2022-10-16T15:09:03;32.40;;;30.33;;
9254;SDS011;4663;49.120;9.730;2022-10-16T15:11:28;26.60;;;25.13;;
9254;SDS011;4663;49.120;9.730;2022-10-16T15:13:56;26.73;;;24.80;;
9254;SDS011;4663;49.120;9.730;2022-10-16T15:16:21;24.83;;;23.65;;
9254;SDS011;4663;49.120;9.730;2022-10-16T15:18:47;25.23;;;23.92;;
9254;SDS011;4663;49.120;9.730;2022-10-16T15:21:18;26.33;;;25.02;;
9254;SDS011;4663;49.120;9.730;2022-10-16T15:23:53;27.50;;;26.10;;
9254;SDS011;4663;49.120;9.730;2022-10-16T15:26:18;26.73;;;25.30;;
9254;SDS011;4663;49.120;9.730;2022-10-16T15:28:44;27.42;;;25.92;;
9254;SDS011;4663;49.120;9.730;2022-10-16T15:31:09;26.92;;;25.58;;
9254;SDS011;4663;49.120;9.730;2022-10-16T15:33:34;26.13;;;24.52;;
9254;SDS011;4663;49.120;9.730;2022-10-16T15:36:00;27.92;;;26.52;;
9254;SDS011;4663;49.120;9.730;2022-10-16T15:38:27;28.83;;;27.17;;
9254;SDS011;4663;49.120;9.730;2022-10-16T15:40:54;29.55;;;27.67;;
9254;SDS011;4663;49.120;9.730;2022-10-16T15:43:19;25.00;;;23.25;;
9254;SDS011;4663;49.120;9.730;2022-10-16T15:45:58;29.92;;;28.08;;
9254;SDS011;4663;49.120;9.730;2022-10-16T15:48:26;29.42;;;27.25;;
9254;SDS011;4663;49.120;9.730;2022-10-16T15:50:52;28.10;;;26.35;;
9254;SDS011;4663;49.120;9.730;2022-10-16T15:53:18;29.65;;;27.58;;
9254;SDS011;4663;49.120;9.730;2022-10-16T15:55:43;28.38;;;26.75;;
9254;SDS011;4663;49.120;9.730;2022-10-16T15:58:09;30.75;;;29.13;;
9254;SDS011;4663;49.120;9.730;2022-10-16T16:00:35;30.08;;;28.48;;
9254;SDS011;4663;49.120;9.730;2022-10-16T16:03:01;31.70;;;29.83;;
9254;SDS011;4663;49.120;9.730;2022-10-16T16:05:26;32.15;;;30.50;;
9254;SDS011;4663;49.120;9.730;2022-10-16T16:07:52;29.58;;;27.88;;
9254;SDS011;4663;49.120;9.730;2022-10-16T16:10:18;30.88;;;28.95;;
9254;SDS011;4663;49.120;9.730;2022-10-16T16:12:45;28.58;;;26.92;;
9254;SDS011;4663;49.120;9.730;2022-10-16T16:15:16;27.48;;;25.92;;
9254;SDS011;4663;49.120;9.730;2022-10-16T16:17:42;26.88;;;25.48;;
9254;SDS011;4663;49.120;9.730;2022-10-16T16:20:09;26.15;;;24.55;;
9254;SDS011;4663;49.120;9.730;2022-10-16T16:22:35;26.05;;;24.27;;
9254;SDS011;4663;49.120;9.730;2022-10-16T16:25:00;26.10;;;24.35;;
9254;SDS011;4663;49.120;9.730;2022-10-16T16:27:25;21.25;;;20.10;;
9254;SDS011;4663;49.120;9.730;2022-10-16T16:29:51;22.42;;;20.85;;
9254;SDS011;4663;49.120;9.730;2022-10-16T16:32:16;21.60;;;20.27;;
9254;SDS011;4663;49.120;9.730;2022-10-16T16:34:42;23.52;;;21.65;;
9254;SDS011;4663;49.120;9.730;2022-10-16T16:37:07;19.67;;;18.40;;
9254;SDS011;4663;49.120;9.730;2022-10-16T16:39:33;20.25;;;18.75;;
9254;SDS011;4663;49.120;9.730;2022-10-16T16:41:58;22.33;;;20.27;;
9254;SDS011;4663;49.120;9.730;2022-10-16T16:44:24;21.88;;;20.48;;
9254;SDS011;4663;49.120;9.730;2022-10-16T16:46:49;21.52;;;20.17;;
9254;SDS011;4663;49.120;9.730;2022-10-16T16:49:15;23.00;;;21.10;;
9254;SDS011;4663;49.120;9.730;2022-10-16T16:51:41;21.63;;;20.13;;